Time;durP1;ratioP1;P1;durP2;ratioP2;P2;SDS_P1;SDS_P2;PMS_P1;PMS_P2;Temp;Humidity;BMP_temperature;BMP_pressure;BME280_temperature;BME280_humidity;BME280_pressure;Samples;Min_cycle;Max_cycle;Signal;HPM_P1;HPM_P2
2023/04/04 03:53:55;;;;;;;6.08;2.45;;;;;;;0.95;60.65;100576.63;6250461;28;20815;-83
2023/04/04 03:56:58;;;;;;;2.85;2.65;;;;;;;0.94;60.25;100576.72;5298989;33;33182;-83
2023/04/04 04:00:03;;;;;;;4.30;2.60;;;;;;;0.88;60.63;100572.75;5292950;33;34074;-83
2023/04/04 04:03:14;;;;;;;2.65;2.45;;;;;;;0.88;60.85;100570.09;5293829;33;33758;-84
2023/04/04 04:06:20;;;;;;;2.87;2.62;;;;;;;0.85;60.84;100570.31;5300270;33;34643;-83
2023/04/04 04:09:23;;;;;;;2.92;2.37;;;;;;;0.94;60.35;100564.34;5288568;33;35252;-83
2023/04/04 04:12:26;;;;;;;2.45;2.25;;;;;;;0.85;62.32;100565.03;5299998;33;34183;-83
2023/04/04 04:15:28;;;;;;;4.22;2.58;;;;;;;0.76;62.37;100561.22;5314323;33;34893;-83
2023/04/04 04:18:32;;;;;;;5.78;2.50;;;;;;;0.73;62.46;100563.22;5286886;33;34276;-83
2023/04/04 04:21:35;;;;;;;4.20;2.80;;;;;;;0.80;61.67;100554.75;5283664;33;33587;-83
2023/04/04 04:24:38;;;;;;;4.25;2.78;;;;;;;0.89;61.27;100558.53;5295476;33;33545;-83
2023/04/04 04:27:41;;;;;;;3.25;2.80;;;;;;;0.82;61.11;100563.44;5283379;33;34002;-83
2023/04/04 04:30:45;;;;;;;2.95;2.60;;;;;;;0.86;61.43;100562.25;5295183;33;34502;-83
2023/04/04 04:33:48;;;;;;;5.32;2.85;;;;;;;0.94;61.07;100558.19;5295163;33;33787;-82
2023/04/04 04:36:52;;;;;;;3.00;2.70;;;;;;;0.92;60.23;100563.59;5272367;33;33939;-82
2023/04/04 04:39:56;;;;;;;6.10;2.83;;;;;;;0.89;62.54;100561.19;5294923;33;33486;-82
2023/04/04 04:43:00;;;;;;;3.47;2.60;;;;;;;0.82;61.11;100562.56;5295210;33;34982;-83
2023/04/04 04:46:03;;;;;;;3.58;3.10;;;;;;;0.79;61.30;100560.13;5295253;33;33864;-83
2023/04/04 04:49:06;;;;;;;4.55;3.17;;;;;;;0.70;62.32;100560.81;5307611;33;33887;-83
2023/04/04 04:52:09;;;;;;;3.78;3.05;;;;;;;0.79;61.66;100553.06;5307807;33;33848;-83
2023/04/04 04:55:17;;;;;;;3.60;3.03;;;;;;;0.82;61.25;100562.56;5268238;33;33633;-84
2023/04/04 04:58:22;;;;;;;3.15;2.78;;;;;;;0.81;62.78;100558.22;5277105;33;34179;-83
2023/04/04 05:01:27;;;;;;;4.40;3.03;;;;;;;0.82;62.46;100562.56;5277734;33;34031;-83
2023/04/04 05:04:31;;;;;;;4.05;3.03;;;;;;;0.86;61.73;100558.75;5265786;33;34135;-83
2023/04/04 05:07:34;;;;;;;3.75;3.03;;;;;;;0.85;62.43;100560.56;5277258;33;35414;-83
2023/04/04 05:10:38;;;;;;;4.75;3.20;;;;;;;1.04;60.97;100560.06;5277090;33;34094;-83
2023/04/04 05:13:42;;;;;;;7.32;3.17;;;;;;;0.99;61.61;100562.19;5277827;33;33851;-83
2023/04/04 05:16:45;;;;;;;6.22;2.80;;;;;;;0.88;61.54;100557.69;5279574;33;33627;-84
2023/04/04 05:19:51;;;;;;;7.65;3.20;;;;;;;0.97;61.38;100553.53;5293386;33;33898;-84
2023/04/04 05:22:54;;;;;;;5.47;3.40;;;;;;;1.04;61.01;100557.41;5291131;33;33756;-88
2023/04/04 05:25:59;;;;;;;4.10;3.15;;;;;;;1.00;61.96;100558.59;5294230;33;35046;-88
2023/04/04 05:29:02;;;;;;;4.25;3.62;;;;;;;1.08;61.36;100563.31;5279162;33;34274;-88
2023/04/04 05:32:06;;;;;;;5.40;3.67;;;;;;;1.07;62.41;100562.47;5286285;33;34829;-85
2023/04/04 05:35:10;;;;;;;4.82;3.40;;;;;;;1.09;61.85;100565.03;5302284;33;34017;-83
2023/04/04 05:38:13;;;;;;;4.97;3.50;;;;;;;1.19;61.36;100565.19;5281491;33;34101;-83
2023/04/04 05:41:17;;;;;;;5.37;3.75;;;;;;;1.24;62.25;100571.84;5289367;33;34117;-83
2023/04/04 05:44:21;;;;;;;7.60;3.62;;;;;;;1.29;60.96;100576.84;5266362;33;33686;-83
2023/04/04 05:47:24;;;;;;;4.47;3.17;;;;;;;1.36;60.04;100576.25;5287487;33;33756;-83
2023/04/04 05:50:27;;;;;;;7.87;4.00;;;;;;;1.42;60.70;100585.56;5271911;33;34164;-83
2023/04/04 05:53:34;;;;;;;9.00;3.80;;;;;;;1.56;59.52;100587.19;5266633;33;33986;-84
2023/04/04 05:56:37;;;;;;;6.70;3.62;;;;;;;1.63;60.88;100588.41;5275371;33;33650;-83
2023/04/04 05:59:41;;;;;;;7.05;3.92;;;;;;;1.63;60.41;100582.25;5276439;33;34623;-84
2023/04/04 06:02:44;;;;;;;7.90;4.50;;;;;;;1.79;60.95;100594.28;5275786;33;34137;-84
2023/04/04 06:05:53;;;;;;;13.85;4.37;;;;;;;1.85;59.49;100586.81;5294541;33;34436;-83
2023/04/04 06:08:57;;;;;;;11.48;4.20;;;;;;;1.96;59.53;100582.38;5295897;33;35415;-83
2023/04/04 06:12:00;;;;;;;5.68;3.80;;;;;;;2.15;58.37;100588.91;5289814;33;35397;-83
2023/04/04 06:15:03;;;;;;;11.63;3.47;;;;;;;2.27;57.41;100590.63;5277912;33;34324;-83
2023/04/04 06:18:06;;;;;;;6.28;3.50;;;;;;;2.43;54.67;100580.50;5289689;33;34370;-83
2023/04/04 06:21:09;;;;;;;4.22;3.12;;;;;;;2.56;54.16;100583.03;5276855;33;34013;-83
2023/04/04 06:24:14;;;;;;;3.28;2.75;;;;;;;2.72;52.63;100585.28;5266442;33;33678;-83
2023/04/04 06:27:16;;;;;;;3.47;2.60;;;;;;;3.03;51.11;100589.00;5266375;33;34034;-82
2023/04/04 06:30:20;;;;;;;3.58;2.65;;;;;;;3.25;50.47;100595.25;5277776;33;34264;-82
2023/04/04 06:33:24;;;;;;;5.72;2.83;;;;;;;3.43;49.36;100599.06;5277601;33;33612;-83
2023/04/04 06:36:27;;;;;;;5.18;2.67;;;;;;;3.71;48.27;100573.63;5276353;33;34112;-83
2023/04/04 06:39:33;;;;;;;4.47;2.40;;;;;;;3.98;47.01;100549.16;5277607;33;35526;-83
2023/04/04 06:42:36;;;;;;;4.50;2.95;;;;;;;4.27;47.60;100538.66;5288283;33;33614;-83
2023/04/04 06:45:39;;;;;;;3.10;2.80;;;;;;;4.09;46.13;100549.09;5294440;33;34357;-84
2023/04/04 06:48:43;;;;;;;6.05;2.60;;;;;;;4.18;46.82;100554.59;5268007;33;35212;-83
2023/04/04 06:51:49;;;;;;;4.57;2.40;;;;;;;3.98;46.44;100540.31;5279354;33;33765;-84
2023/04/04 06:54:52;;;;;;;4.00;2.92;;;;;;;3.81;47.27;100533.78;5277230;33;33601;-84
2023/04/04 06:57:55;;;;;;;6.25;2.72;;;;;;;3.80;47.20;100530.28;5277496;33;35191;-84
2023/04/04 07:00:58;;;;;;;4.93;2.72;;;;;;;3.64;47.77;100532.53;5276089;33;35398;-84
2023/04/04 07:04:02;;;;;;;3.58;2.53;;;;;;;3.56;48.13;100541.16;5267494;33;34885;-84
2023/04/04 07:07:05;;;;;;;5.85;3.00;;;;;;;3.58;47.96;100541.06;5290321;33;33557;-83
2023/04/04 07:10:08;;;;;;;3.50;2.80;;;;;;;3.55;47.92;100546.63;5265940;33;34040;-83
2023/04/04 07:13:11;;;;;;;6.12;3.53;;;;;;;3.77;48.25;100548.31;5265025;33;34324;-83
2023/04/04 07:16:14;;;;;;;4.93;2.90;;;;;;;3.76;47.75;100558.13;5269483;33;33771;-83
2023/04/04 07:19:17;;;;;;;3.37;2.85;;;;;;;3.93;47.65;100545.22;5275901;33;34227;-83
2023/04/04 07:22:20;;;;;;;3.80;2.83;;;;;;;3.94;47.32;100553.06;5281375;33;35051;-83
2023/04/04 07:25:23;;;;;;;5.10;2.90;;;;;;;3.92;47.00;100559.47;5281529;33;34848;-83
2023/04/04 07:28:26;;;;;;;3.40;2.85;;;;;;;4.02;46.62;100555.06;5287722;33;35523;-86
2023/04/04 07:31:29;;;;;;;9.57;3.50;;;;;;;3.95;47.22;100561.88;5276405;33;34128;-87
2023/04/04 07:34:31;;;;;;;4.50;3.30;;;;;;;3.99;47.06;100566.00;5269894;33;35114;-87
2023/04/04 07:37:38;;;;;;;6.07;2.85;;;;;;;4.26;46.40;100568.94;5269657;33;34338;-87
2023/04/04 07:40:41;;;;;;;3.22;2.67;;;;;;;4.28;46.23;100561.66;5288575;33;34107;-84
2023/04/04 07:43:44;;;;;;;6.10;3.40;;;;;;;4.62;45.58;100561.41;5285861;33;34956;-84
2023/04/04 07:46:48;;;;;;;9.02;3.00;;;;;;;4.96;45.74;100569.06;5280490;33;34123;-84
2023/04/04 07:50:08;;;;;;;6.20;3.03;;;;;;;5.42;43.71;100564.94;5293607;33;34654;-83
2023/04/04 07:53:11;;;;;;;7.70;2.92;;;;;;;5.88;42.55;100566.03;5271936;33;33984;-83
2023/04/04 07:56:14;;;;;;;5.03;2.72;;;;;;;6.02;41.65;100568.28;5270500;33;33687;-84
2023/04/04 07:59:17;;;;;;;14.57;3.50;;;;;;;6.51;42.19;100571.66;5265749;33;34225;-84
2023/04/04 08:02:20;;;;;;;5.85;2.72;;;;;;;6.82;40.48;100558.84;5288468;33;35077;-84
2023/04/04 08:05:24;;;;;;;3.28;2.67;;;;;;;6.89;39.83;100571.63;5291634;33;33978;-84
2023/04/04 08:08:26;;;;;;;4.60;2.60;;;;;;;6.27;41.39;100574.00;5299610;33;34376;-83
2023/04/04 08:11:29;;;;;;;4.15;2.80;;;;;;;6.57;41.29;100563.03;5285756;33;34409;-84
2023/04/04 08:14:32;;;;;;;5.43;2.28;;;;;;;6.50;40.95;100571.81;5286515;33;34325;-84
2023/04/04 08:17:36;;;;;;;3.60;2.80;;;;;;;6.02;40.16;100556.75;5275150;33;34254;-84
2023/04/04 08:20:39;;;;;;;4.07;2.70;;;;;;;6.03;40.92;100558.44;5273087;33;34036;-84
2023/04/04 08:23:42;;;;;;;5.43;2.47;;;;;;;6.01;40.58;100555.91;5259694;33;33656;-84
2023/04/04 08:26:45;;;;;;;3.15;2.42;;;;;;;5.77;40.76;100561.69;5277334;33;34032;-82
2023/04/04 08:30:02;;;;;;;4.53;2.78;;;;;;;6.45;41.67;100577.59;5269646;33;33881;-83
2023/04/04 08:33:09;;;;;;;4.43;2.30;;;;;;;6.57;40.56;100573.72;5251272;33;34695;-82
2023/04/04 08:36:15;;;;;;;3.67;2.40;;;;;;;6.47;39.87;100569.44;5280213;33;33540;-83
2023/04/04 08:39:18;;;;;;;3.05;2.50;;;;;;;6.46;39.59;100570.41;5273674;33;34724;-83
2023/04/04 08:42:23;;;;;;;5.65;2.87;;;;;;;6.16;39.86;100571.50;5286325;33;34214;-83
2023/04/04 08:45:29;;;;;;;3.80;2.83;;;;;;;6.53;40.19;100583.06;5294049;33;34147;-83
2023/04/04 08:48:32;;;;;;;2.47;2.28;;;;;;;6.77;38.88;100570.97;5290977;33;33737;-83
2023/04/04 08:51:37;;;;;;;2.75;2.53;;;;;;;6.58;39.39;100547.81;5285839;33;34450;-84
2023/04/04 08:54:42;;;;;;;3.45;2.22;;;;;;;7.05;38.95;100547.72;5259267;33;33950;-83
2023/04/04 08:57:45;;;;;;;2.83;2.33;;;;;;;7.13;39.22;100569.22;5276263;33;33749;-83
2023/04/04 09:00:52;;;;;;;4.57;2.70;;;;;;;6.78;39.20;100549.41;5254079;33;34168;-83
2023/04/04 09:03:56;;;;;;;5.32;2.45;;;;;;;7.08;38.58;100539.41;5289674;33;34733;-83
2023/04/04 09:07:02;;;;;;;5.60;2.42;;;;;;;7.18;38.52;100529.44;5284067;33;34048;-83
2023/04/04 09:10:07;;;;;;;3.42;2.60;;;;;;;7.03;38.53;100537.16;5286692;33;33914;-88
2023/04/04 09:13:11;;;;;;;4.45;2.65;;;;;;;7.04;38.42;100536.16;5288729;33;34800;-88
2023/04/04 09:16:18;;;;;;;4.00;2.65;;;;;;;7.39;38.53;100531.81;5266426;33;34973;-85
2023/04/04 09:19:21;;;;;;;5.10;2.62;;;;;;;7.60;39.68;100542.22;5278930;33;33637;-84
2023/04/04 09:22:27;;;;;;;5.43;2.67;;;;;;;7.38;38.86;100540.84;5277411;33;34003;-84
2023/04/04 09:25:31;;;;;;;3.05;2.30;;;;;;;7.44;38.29;100529.53;5276598;33;34890;-83
2023/04/04 09:28:34;;;;;;;5.15;3.12;;;;;;;7.86;37.19;100534.22;5276449;33;35152;-84
2023/04/04 09:31:37;;;;;;;4.80;2.62;;;;;;;8.28;36.57;100516.56;5288785;33;33984;-84
2023/04/04 09:34:42;;;;;;;2.35;2.15;;;;;;;7.98;38.52;100537.47;5274223;33;35119;-84
2023/04/04 09:37:46;;;;;;;6.37;2.60;;;;;;;7.71;36.98;100531.25;5265361;33;34737;-84
2023/04/04 09:40:51;;;;;;;3.22;2.45;;;;;;;7.26;37.81;100521.50;5272830;33;34812;-84
2023/04/04 09:43:57;;;;;;;2.70;2.40;;;;;;;6.97;37.94;100526.22;5276677;33;34587;-84
2023/04/04 09:47:25;;;;;;;4.65;2.58;;;;;;;7.24;38.06;100531.50;5289280;33;34063;-83
2023/04/04 09:50:32;;;;;;;6.37;2.70;;;;;;;7.15;37.47;100524.41;5285806;33;33547;-83
2023/04/04 09:53:37;;;;;;;2.47;2.28;;;;;;;7.43;38.14;100514.47;5289869;33;33882;-84
2023/04/04 09:56:42;;;;;;;3.53;2.80;;;;;;;7.75;37.49;100515.72;5284657;33;161159;-84
2023/04/04 09:59:45;;;;;;;2.78;2.50;;;;;;;7.90;38.52;100503.44;5281379;33;34083;-84
2023/04/04 10:02:51;;;;;;;4.35;2.70;;;;;;;8.40;36.28;100500.06;5278703;33;33813;-83
2023/04/04 10:06:06;;;;;;;2.62;2.42;;;;;;;8.62;35.92;100525.44;5289144;33;33635;-84
2023/04/04 10:09:09;;;;;;;5.47;2.40;;;;;;;8.47;35.39;100508.28;5275483;33;35420;-84
2023/04/04 10:12:13;;;;;;;3.40;2.25;;;;;;;8.25;36.46;100511.50;5266057;33;33575;-84
2023/04/04 10:15:16;;;;;;;2.72;2.50;;;;;;;7.94;36.35;100501.28;5277050;33;33913;-82
2023/04/04 10:18:23;;;;;;;2.85;2.55;;;;;;;7.87;36.30;100509.09;5268568;33;35413;-83
2023/04/04 10:21:26;;;;;;;2.72;2.42;;;;;;;8.13;36.78;100513.59;5302926;33;35926;-83
2023/04/04 10:24:29;;;;;;;2.90;2.58;;;;;;;8.62;36.75;100505.84;5301865;33;35095;-82
2023/04/04 10:27:33;;;;;;;4.25;2.85;;;;;;;8.88;35.85;100500.38;5278292;33;34380;-83
2023/04/04 10:30:43;;;;;;;4.12;2.33;;;;;;;9.21;34.81;100495.91;5301720;33;35225;-84
2023/04/04 10:34:20;;;;;;;5.45;2.53;;;;;;;9.01;34.29;100490.03;5288844;33;33901;-85
2023/04/04 10:37:28;;;;;;;2.55;2.35;;;;;;;8.78;34.98;100491.66;5289955;33;34340;-85
2023/04/04 10:40:36;;;;;;;5.30;2.60;;;;;;;8.95;34.00;100479.94;5274877;33;34375;-85
2023/04/04 10:43:46;;;;;;;3.22;2.33;;;;;;;9.16;34.97;100476.78;5286088;33;34185;-85
2023/04/04 10:46:52;;;;;;;4.00;2.62;;;;;;;9.44;34.33;100481.81;5299686;33;34304;-85
2023/04/04 10:49:56;;;;;;;2.28;2.00;;;;;;;10.01;34.07;100484.47;5294033;33;34139;-85
2023/04/04 10:53:01;;;;;;;3.97;2.45;;;;;;;10.09;33.52;100481.75;5297599;33;34065;-85
2023/04/04 10:56:05;;;;;;;3.53;2.03;;;;;;;9.95;33.13;100495.91;5274545;33;34600;-85
2023/04/04 10:59:13;;;;;;;2.17;1.90;;;;;;;10.34;31.90;100479.84;5269699;33;35016;-85
2023/04/04 11:02:17;;;;;;;4.00;2.37;;;;;;;10.60;33.22;100478.75;5295446;33;34146;-85
2023/04/04 11:06:00;;;;;;;2.35;2.15;;;;;;;11.36;30.71;100471.69;5298171;33;34386;-83
2023/04/04 11:09:06;;;;;;;2.53;2.17;;;;;;;11.37;31.19;100477.91;5294497;33;33761;-84
2023/04/04 11:12:14;;;;;;;2.65;2.20;;;;;;;11.70;30.28;100468.53;5280596;33;34918;-84
2023/04/04 11:15:20;;;;;;;4.57;2.30;;;;;;;10.51;30.69;100467.16;5293197;33;34269;-84
2023/04/04 11:18:42;;;;;;;2.62;2.00;;;;;;;11.53;31.64;100457.06;5304313;33;35324;-84
2023/04/04 11:21:45;;;;;;;3.47;2.35;;;;;;;11.27;30.41;100465.53;5292800;33;35351;-89
2023/04/04 11:24:48;;;;;;;3.42;2.33;;;;;;;12.11;29.67;100449.25;5282462;33;33885;-87
2023/04/04 11:27:56;;;;;;;4.12;2.08;;;;;;;12.02;29.00;100459.31;5271779;33;33648;-84
2023/04/04 11:31:23;;;;;;;4.40;2.53;;;;;;;12.33;29.75;100454.75;5292491;33;33927;-84
2023/04/04 11:34:31;;;;;;;2.55;2.35;;;;;;;13.24;28.93;100450.56;5293818;33;33004;-84
2023/04/04 11:38:02;;;;;;;4.12;2.60;;;;;;;13.68;27.76;100438.72;5288926;33;34313;-84
2023/04/04 11:41:06;;;;;;;6.30;2.10;;;;;;;13.63;28.12;100443.91;5277576;33;34135;-84
2023/04/04 11:44:10;;;;;;;4.10;2.22;;;;;;;12.52;28.28;100439.81;5273095;33;33591;-83
2023/04/04 11:47:13;;;;;;;4.62;2.55;;;;;;;13.31;27.98;100432.59;5277208;33;33673;-84
2023/04/04 11:50:18;;;;;;;2.80;2.08;;;;;;;13.55;26.89;100434.03;5290130;33;34275;-83
2023/04/04 11:53:23;;;;;;;5.75;2.42;;;;;;;14.44;27.31;100430.63;5275440;33;34140;-85
2023/04/04 11:56:26;;;;;;;5.35;2.37;;;;;;;16.67;24.95;100422.06;5278744;33;32671;-83
2023/04/04 11:59:30;;;;;;;4.00;2.58;;;;;;;17.17;26.95;100419.47;5260467;33;35424;-84
2023/04/04 12:02:38;;;;;;;3.70;2.25;;;;;;;18.38;24.49;100415.44;5277825;33;35310;-83
2023/04/04 12:05:42;;;;;;;3.45;2.30;;;;;;;17.78;21.90;100413.34;5275997;33;35531;-84
2023/04/04 12:08:47;;;;;;;3.50;2.53;;;;;;;17.24;23.02;100417.56;5290379;33;33514;-84
2023/04/04 12:11:50;;;;;;;3.70;2.17;;;;;;;18.46;22.58;100411.56;5278687;33;33985;-84
2023/04/04 12:14:53;;;;;;;2.72;2.12;;;;;;;19.12;22.22;100409.84;5277809;33;33895;-84
2023/04/04 12:18:21;;;;;;;3.40;2.25;;;;;;;16.44;23.09;100398.09;5289829;33;34029;-83
2023/04/04 12:21:24;;;;;;;3.95;1.92;;;;;;;16.28;25.16;100383.97;5289425;33;34075;-88
2023/04/04 12:24:27;;;;;;;2.67;2.37;;;;;;;15.85;25.79;100391.81;5277305;33;33848;-88
2023/04/04 12:27:30;;;;;;;3.62;2.25;;;;;;;15.16;25.17;100391.22;5277896;33;33849;-88
2023/04/04 12:30:34;;;;;;;2.47;2.03;;;;;;;14.70;24.97;100399.28;5275165;33;34141;-86
2023/04/04 12:33:40;;;;;;;3.25;2.20;;;;;;;15.81;24.29;100382.44;5276070;33;34018;-84
2023/04/04 12:36:46;;;;;;;2.35;1.90;;;;;;;17.85;23.37;100384.16;5289910;33;34391;-83
2023/04/04 12:39:49;;;;;;;2.22;2.03;;;;;;;16.95;23.37;100375.50;5259490;33;34301;-84
2023/04/04 12:42:54;;;;;;;4.07;2.20;;;;;;;16.87;24.31;100379.31;5289413;33;34361;-84
2023/04/04 12:45:57;;;;;;;4.60;2.15;;;;;;;17.00;23.66;100381.94;5259942;33;33853;-84
2023/04/04 12:49:00;;;;;;;2.90;2.08;;;;;;;15.97;23.46;100370.28;5251628;33;34744;-84
2023/04/04 12:52:05;;;;;;;2.45;2.05;;;;;;;15.91;24.30;100371.97;5289246;33;33999;-84
2023/04/04 12:55:09;;;;;;;2.72;2.20;;;;;;;14.60;24.39;100375.28;5290478;33;34497;-84
2023/04/04 12:58:16;;;;;;;2.20;2.00;;;;;;;15.63;24.24;100366.78;5277855;33;33649;-85
2023/04/04 13:01:20;;;;;;;3.00;2.10;;;;;;;14.73;24.97;100366.34;5295163;33;34125;-84
2023/04/04 13:04:23;;;;;;;2.80;1.92;;;;;;;15.88;24.97;100361.53;5281023;33;34258;-85
2023/04/04 13:07:31;;;;;;;2.33;2.05;;;;;;;15.90;24.67;100356.72;5269609;33;34326;-85
2023/04/04 13:11:06;;;;;;;3.33;2.25;;;;;;;14.82;25.47;100358.84;5294967;33;33938;-85
2023/04/04 13:14:09;;;;;;;2.70;2.50;;;;;;;14.85;26.21;100361.97;5269758;33;34246;-85
2023/04/04 13:17:16;;;;;;;2.97;2.37;;;;;;;14.30;26.14;100366.59;5269758;33;33828;-85
2023/04/04 13:20:20;;;;;;;3.62;2.47;;;;;;;13.82;28.56;100353.06;5302610;33;33892;-85
2023/04/04 13:23:24;;;;;;;2.30;2.10;;;;;;;14.57;25.96;100355.91;5299241;33;34219;-84
2023/04/04 13:26:27;;;;;;;5.22;2.35;;;;;;;15.24;25.59;100356.78;5279169;33;31852;-85
2023/04/04 13:29:31;;;;;;;3.33;2.47;;;;;;;16.12;24.49;100354.59;5279211;33;34004;-85
2023/04/04 13:32:35;;;;;;;3.65;2.30;;;;;;;16.65;23.52;100350.78;5280646;33;33693;-85
2023/04/04 13:35:42;;;;;;;2.78;2.47;;;;;;;15.99;24.84;100341.03;5267668;33;34116;-86
2023/04/04 13:38:45;;;;;;;2.78;2.12;;;;;;;14.68;27.12;100337.19;5290924;33;33937;-85
2023/04/04 13:41:49;;;;;;;2.95;2.30;;;;;;;14.03;25.67;100347.53;5281349;33;35553;-84
2023/04/04 13:44:52;;;;;;;5.03;2.40;;;;;;;14.01;26.72;100343.34;5250919;33;34833;-86
2023/04/04 13:47:54;;;;;;;3.47;2.40;;;;;;;14.37;24.51;100340.38;5266521;33;34146;-85
2023/04/04 13:50:57;;;;;;;2.47;2.28;;;;;;;14.41;25.61;100347.06;5256122;33;34003;-85
2023/04/04 13:54:00;;;;;;;3.10;2.10;;;;;;;15.47;25.61;100338.19;5266872;33;34018;-85
2023/04/04 13:57:03;;;;;;;2.85;2.12;;;;;;;15.13;24.58;100340.12;5253786;33;33833;-89
2023/04/04 14:00:07;;;;;;;3.97;2.20;;;;;;;15.52;24.25;100332.16;5269472;33;34288;-90
2023/04/04 14:03:11;;;;;;;4.15;2.20;;;;;;;15.59;25.20;100341.97;5272314;33;33893;-89
2023/04/04 14:06:17;;;;;;;2.65;2.30;;;;;;;15.80;24.34;100334.63;5288870;33;34843;-86
2023/04/04 14:09:20;;;;;;;2.53;2.20;;;;;;;14.68;24.75;100337.19;5274167;33;35108;-85
2023/04/04 14:12:23;;;;;;;3.67;2.47;;;;;;;15.43;24.66;100342.41;5289581;33;35341;-86
2023/04/04 14:15:25;;;;;;;3.92;2.40;;;;;;;15.53;25.41;100334.69;5277182;33;34224;-86
2023/04/04 14:18:28;;;;;;;3.40;2.35;;;;;;;15.39;24.21;100342.00;5289877;33;33851;-86
2023/04/04 14:21:31;;;;;;;3.08;2.40;;;;;;;15.52;24.64;100337.59;5277505;33;34325;-85
2023/04/04 14:24:34;;;;;;;2.70;2.50;;;;;;;15.54;24.48;100330.91;5277899;33;33536;-86
2023/04/04 14:27:37;;;;;;;2.55;2.17;;;;;;;15.69;24.48;100335.28;5277114;33;34942;-85
2023/04/04 14:30:39;;;;;;;2.30;2.10;;;;;;;16.28;23.39;100336.97;5277394;33;34181;-85
2023/04/04 14:33:43;;;;;;;3.83;2.35;;;;;;;16.46;23.10;100328.91;5266598;33;34747;-85
2023/04/04 14:36:47;;;;;;;3.28;2.60;;;;;;;16.09;24.01;100339.56;5289926;33;35101;-85
2023/04/04 14:39:49;;;;;;;2.50;2.30;;;;;;;15.77;24.46;100344.03;5276891;33;35209;-84
2023/04/04 14:42:52;;;;;;;2.72;2.20;;;;;;;15.72;24.49;100346.56;5263986;33;34077;-84
2023/04/04 14:45:55;;;;;;;2.30;2.10;;;;;;;14.48;25.27;100342.50;5290378;33;33638;-84
2023/04/04 14:48:59;;;;;;;2.42;2.10;;;;;;;13.59;25.92;100353.31;5267827;33;33965;-84
2023/04/04 14:52:02;;;;;;;3.20;2.40;;;;;;;13.14;27.18;100355.47;5291796;33;33983;-84
2023/04/04 14:55:06;;;;;;;4.12;2.90;;;;;;;12.28;28.17;100357.28;5289450;33;34582;-84
2023/04/04 14:58:11;;;;;;;4.37;2.92;;;;;;;11.11;29.06;100347.94;5278331;33;33904;-84
2023/04/04 15:01:15;;;;;;;5.18;2.53;;;;;;;10.70;29.83;100360.03;5266391;33;34020;-84
2023/04/04 15:04:18;;;;;;;3.03;2.42;;;;;;;11.06;29.83;100350.34;5294361;33;35163;-84
2023/04/04 15:07:23;;;;;;;2.92;2.53;;;;;;;10.77;30.49;100355.63;5264429;33;34749;-84
2023/04/04 15:10:25;;;;;;;4.15;2.60;;;;;;;10.57;31.07;100360.66;5275868;33;34774;-84
2023/04/04 15:13:28;;;;;;;3.05;2.53;;;;;;;10.40;31.73;100358.03;5276007;33;33786;-84
2023/04/04 15:16:32;;;;;;;2.90;2.42;;;;;;;10.14;31.35;100361.00;5264929;33;33930;-84
2023/04/04 15:19:35;;;;;;;5.65;3.30;;;;;;;9.97;32.41;100359.41;5276667;33;34096;-83
2023/04/04 15:22:40;;;;;;;2.90;2.55;;;;;;;10.14;31.71;100368.25;5276370;33;33984;-84
2023/04/04 15:25:43;;;;;;;2.85;2.40;;;;;;;9.47;32.34;100357.88;5288510;33;34365;-83
2023/04/04 15:28:48;;;;;;;4.12;2.50;;;;;;;9.52;32.90;100366.25;5264200;33;34693;-83
2023/04/04 15:31:51;;;;;;;4.57;2.62;;;;;;;9.63;32.68;100360.53;5264688;33;35352;-84
2023/04/04 15:34:54;;;;;;;3.67;2.40;;;;;;;9.61;33.15;100375.97;5275552;33;34475;-83
2023/04/04 15:37:57;;;;;;;3.22;2.70;;;;;;;9.14;34.26;100367.81;5264646;33;33849;-83
2023/04/04 15:41:00;;;;;;;3.78;2.72;;;;;;;9.16;33.79;100376.56;5275451;33;35394;-83
2023/04/04 15:44:04;;;;;;;5.03;3.20;;;;;;;8.99;34.42;100376.56;5264163;33;33640;-83
2023/04/04 15:47:07;;;;;;;2.33;2.12;;;;;;;8.93;34.09;100371.84;5289001;33;34062;-84
2023/04/04 15:50:12;;;;;;;3.47;2.40;;;;;;;8.63;34.24;100379.56;5278267;33;33972;-83
2023/04/04 15:53:16;;;;;;;4.78;2.83;;;;;;;8.44;34.72;100387.06;5267502;33;34951;-83
2023/04/04 15:56:19;;;;;;;3.35;2.87;;;;;;;8.54;34.76;100385.03;5300848;33;34047;-83
2023/04/04 15:59:22;;;;;;;3.17;2.62;;;;;;;8.29;35.61;100395.69;5290477;33;34146;-83
2023/04/04 16:02:25;;;;;;;2.85;2.50;;;;;;;8.08;35.59;100397.97;5289002;33;34439;-83
